sensor_id;sensor_type;location;lat;lon;timestamp;P1;P2;P0
78678;PMS5003;67994;59.334;13.528;2023-09-12T00:00:00;20.9;19.0;
78678;PMS5003;67994;59.334;13.528;2023-09-12T00:01:03;20.9;19.0;
78678;PMS5003;67994;59.334;13.528;2023-09-12T00:02:00;20.9;19.0;
78678;PMS5003;67994;59.334;13.528;2023-09-12T00:03:00;20.9;19.0;
78678;PMS5003;67994;59.334;13.528;2023-09-12T00:04:00;16.2;16.2;
78678;PMS5003;67994;59.334;13.528;2023-09-12T00:05:00;16.2;16.2;
78678;PMS5003;67994;59.334;13.528;2023-09-12T00:06:01;16.2;16.2;
78678;PMS5003;67994;59.334;13.528;2023-09-12T00:07:00;16.2;16.2;
78678;PMS5003;67994;59.334;13.528;2023-09-12T00:08:00;16.2;16.2;
78678;PMS5003;67994;59.334;13.528;2023-09-12T00:09:00;21.3;21.2;
78678;PMS5003;67994;59.334;13.528;2023-09-12T00:10:00;21.3;21.2;
78678;PMS5003;67994;59.334;13.528;2023-09-12T00:11:01;21.3;21.2;
78678;PMS5003;67994;59.334;13.528;2023-09-12T00:12:00;21.3;21.2;
78678;PMS5003;67994;59.334;13.528;2023-09-12T00:13:00;21.3;21.2;
78678;PMS5003;67994;59.334;13.528;2023-09-12T00:14:00;20.1;17.3;
78678;PMS5003;67994;59.334;13.528;2023-09-12T00:15:00;20.1;17.3;
78678;PMS5003;67994;59.334;13.528;2023-09-12T00:16:00;20.1;17.3;
78678;PMS5003;67994;59.334;13.528;2023-09-12T00:17:00;20.1;17.3;
78678;PMS5003;67994;59.334;13.528;2023-09-12T00:18:00;20.1;17.3;
78678;PMS5003;67994;59.334;13.528;2023-09-12T00:19:00;19.8;17.8;
78678;PMS5003;67994;59.334;13.528;2023-09-12T00:20:00;19.8;17.8;
78678;PMS5003;67994;59.334;13.528;2023-09-12T00:21:00;19.8;17.8;
78678;PMS5003;67994;59.334;13.528;2023-09-12T00:22:00;19.8;17.8;
78678;PMS5003;67994;59.334;13.528;2023-09-12T00:23:00;19.8;17.8;
78678;PMS5003;67994;59.334;13.528;2023-09-12T00:24:00;18.2;17.8;
78678;PMS5003;67994;59.334;13.528;2023-09-12T00:25:00;18.2;17.8;
78678;PMS5003;67994;59.334;13.528;2023-09-12T00:26:00;18.2;17.8;
78678;PMS5003;67994;59.334;13.528;2023-09-12T00:27:00;18.2;17.8;
78678;PMS5003;67994;59.334;13.528;2023-09-12T00:28:00;18.2;17.8;
78678;PMS5003;67994;59.334;13.528;2023-09-12T00:29:00;21.6;18.2;
78678;PMS5003;67994;59.334;13.528;2023-09-12T00:30:00;21.6;18.2;
78678;PMS5003;67994;59.334;13.528;2023-09-12T00:31:00;21.6;18.2;
78678;PMS5003;67994;59.334;13.528;2023-09-12T00:32:00;21.6;18.2;
78678;PMS5003;67994;59.334;13.528;2023-09-12T00:33:00;21.6;18.2;
78678;PMS5003;67994;59.334;13.528;2023-09-12T00:34:00;22.6;20.9;
78678;PMS5003;67994;59.334;13.528;2023-09-12T00:35:00;22.6;20.9;
78678;PMS5003;67994;59.334;13.528;2023-09-12T00:36:00;22.6;20.9;
78678;PMS5003;67994;59.334;13.528;2023-09-12T00:37:00;22.6;20.9;
78678;PMS5003;67994;59.334;13.528;2023-09-12T00:38:00;22.6;20.9;
78678;PMS5003;67994;59.334;13.528;2023-09-12T00:39:00;22.2;20.2;
78678;PMS5003;67994;59.334;13.528;2023-09-12T00:40:00;22.2;20.2;
78678;PMS5003;67994;59.334;13.528;2023-09-12T00:41:00;22.2;20.2;
78678;PMS5003;67994;59.334;13.528;2023-09-12T00:42:00;22.2;20.2;
78678;PMS5003;67994;59.334;13.528;2023-09-12T00:43:00;22.2;20.2;
78678;PMS5003;67994;59.334;13.528;2023-09-12T00:44:00;22.4;19.0;
78678;PMS5003;67994;59.334;13.528;2023-09-12T00:45:00;22.4;19.0;
78678;PMS5003;67994;59.334;13.528;2023-09-12T00:46:00;22.4;19.0;
78678;PMS5003;67994;59.334;13.528;2023-09-12T00:47:00;22.4;19.0;
78678;PMS5003;67994;59.334;13.528;2023-09-12T00:48:01;22.4;19.0;
78678;PMS5003;67994;59.334;13.528;2023-09-12T00:49:00;24.0;21.3;
78678;PMS5003;67994;59.334;13.528;2023-09-12T00:50:00;24.0;21.3;
78678;PMS5003;67994;59.334;13.528;2023-09-12T00:51:00;24.0;21.3;
78678;PMS5003;67994;59.334;13.528;2023-09-12T00:52:00;24.0;21.3;
78678;PMS5003;67994;59.334;13.528;2023-09-12T00:53:01;24.0;21.3;
78678;PMS5003;67994;59.334;13.528;2023-09-12T00:54:00;25.5;21.1;
78678;PMS5003;67994;59.334;13.528;2023-09-12T00:55:00;25.5;21.1;
78678;PMS5003;67994;59.334;13.528;2023-09-12T00:56:00;25.5;21.1;
78678;PMS5003;67994;59.334;13.528;2023-09-12T00:57:00;25.5;21.1;
78678;PMS5003;67994;59.334;13.528;2023-09-12T00:58:00;25.5;21.1;
78678;PMS5003;67994;59.334;13.528;2023-09-12T00:59:00;27.3;26.2;
78678;PMS5003;67994;59.334;13.528;2023-09-12T01:00:01;27.3;26.2;
78678;PMS5003;67994;59.334;13.528;2023-09-12T01:01:00;27.3;26.2;
78678;PMS5003;67994;59.334;13.528;2023-09-12T01:02:00;27.3;26.2;
78678;PMS5003;67994;59.334;13.528;2023-09-12T01:03:00;27.3;26.2;
78678;PMS5003;67994;59.334;13.528;2023-09-12T01:04:00;28.4;25.2;
78678;PMS5003;67994;59.334;13.528;2023-09-12T01:05:00;28.4;25.2;
78678;PMS5003;67994;59.334;13.528;2023-09-12T01:06:00;28.4;25.2;
78678;PMS5003;67994;59.334;13.528;2023-09-12T01:07:00;28.4;25.2;
78678;PMS5003;67994;59.334;13.528;2023-09-12T01:08:00;28.4;25.2;
78678;PMS5003;67994;59.334;13.528;2023-09-12T01:09:00;31.5;29.9;
78678;PMS5003;67994;59.334;13.528;2023-09-12T01:10:00;31.5;29.9;
78678;PMS5003;67994;59.334;13.528;2023-09-12T01:11:00;31.5;29.9;
78678;PMS5003;67994;59.334;13.528;2023-09-12T01:12:00;31.5;29.9;
78678;PMS5003;67994;59.334;13.528;2023-09-12T01:13:00;31.5;29.9;
78678;PMS5003;67994;59.334;13.528;2023-09-12T01:14:00;32.4;29.4;
78678;PMS5003;67994;59.334;13.528;2023-09-12T01:15:00;32.4;29.4;
78678;PMS5003;67994;59.334;13.528;2023-09-12T01:16:00;32.4;29.4;
78678;PMS5003;67994;59.334;13.528;2023-09-12T01:17:00;32.4;29.4;
78678;PMS5003;67994;59.334;13.528;2023-09-12T01:18:00;32.4;29.4;
78678;PMS5003;67994;59.334;13.528;2023-09-12T01:19:00;27.8;25.9;
78678;PMS5003;67994;59.334;13.528;2023-09-12T01:20:00;27.8;25.9;
78678;PMS5003;67994;59.334;13.528;2023-09-12T01:21:05;27.8;25.9;
78678;PMS5003;67994;59.334;13.528;2023-09-12T01:22:10;27.8;25.9;
78678;PMS5003;67994;59.334;13.528;2023-09-12T01:23:06;27.8;25.9;
78678;PMS5003;67994;59.334;13.528;2023-09-12T01:24:04;33.6;28.6;
78678;PMS5003;67994;59.334;13.528;2023-09-12T01:25:06;33.6;28.6;
78678;PMS5003;67994;59.334;13.528;2023-09-12T01:26:04;33.6;28.6;
78678;PMS5003;67994;59.334;13.528;2023-09-12T01:27:08;33.6;28.6;
78678;PMS5003;67994;59.334;13.528;2023-09-12T01:28:01;33.6;28.6;
78678;PMS5003;67994;59.334;13.528;2023-09-12T01:29:00;33.8;30.6;
78678;PMS5003;67994;59.334;13.528;2023-09-12T01:30:01;33.8;30.6;
78678;PMS5003;67994;59.334;13.528;2023-09-12T01:31:00;33.8;30.6;
78678;PMS5003;67994;59.334;13.528;2023-09-12T01:32:00;33.8;30.6;
78678;PMS5003;67994;59.334;13.528;2023-09-12T01:33:00;33.8;30.6;
78678;PMS5003;67994;59.334;13.528;2023-09-12T01:34:07;35.9;31.3;
78678;PMS5003;67994;59.334;13.528;2023-09-12T01:35:00;35.9;31.3;
78678;PMS5003;67994;59.334;13.528;2023-09-12T01:36:01;35.9;31.3;
78678;PMS5003;67994;59.334;13.528;2023-09-12T01:37:00;35.9;31.3;
78678;PMS5003;67994;59.334;13.528;2023-09-12T01:38:00;35.9;31.3;
78678;PMS5003;67994;59.334;13.528;2023-09-12T01:39:00;26.6;26.5;
78678;PMS5003;67994;59.334;13.528;2023-09-12T01:40:00;26.6;26.5;
78678;PMS5003;67994;59.334;13.528;2023-09-12T01:41:00;26.6;26.5;
78678;PMS5003;67994;59.334;13.528;2023-09-12T01:42:00;26.6;26.5;
78678;PMS5003;67994;59.334;13.528;2023-09-12T01:43:00;26.6;26.5;
78678;PMS5003;67994;59.334;13.528;2023-09-12T01:44:00;27.8;24.1;
78678;PMS5003;67994;59.334;13.528;2023-09-12T01:45:01;27.8;24.1;
78678;PMS5003;67994;59.334;13.528;2023-09-12T01:46:00;27.8;24.1;
78678;PMS5003;67994;59.334;13.528;2023-09-12T01:47:00;27.8;24.1;
78678;PMS5003;67994;59.334;13.528;2023-09-12T01:48:00;27.8;24.1;
78678;PMS5003;67994;59.334;13.528;2023-09-12T01:49:00;28.8;23.7;
78678;PMS5003;67994;59.334;13.528;2023-09-12T01:50:00;28.8;23.7;
78678;PMS5003;67994;59.334;13.528;2023-09-12T01:51:00;28.8;23.7;
78678;PMS5003;67994;59.334;13.528;2023-09-12T01:52:00;28.8;23.7;
78678;PMS5003;67994;59.334;13.528;2023-09-12T01:53:00;28.8;23.7;
78678;PMS5003;67994;59.334;13.528;2023-09-12T01:54:02;31.7;27.3;
78678;PMS5003;67994;59.334;13.528;2023-09-12T01:55:00;31.7;27.3;
78678;PMS5003;67994;59.334;13.528;2023-09-12T01:56:00;31.7;27.3;
78678;PMS5003;67994;59.334;13.528;2023-09-12T01:57:00;31.7;27.3;
78678;PMS5003;67994;59.334;13.528;2023-09-12T01:58:00;31.7;27.3;
78678;PMS5003;67994;59.334;13.528;2023-09-12T01:59:00;25.1;24.1;
78678;PMS5003;67994;59.334;13.528;2023-09-12T02:00:00;25.1;24.1;
78678;PMS5003;67994;59.334;13.528;2023-09-12T02:01:00;25.1;24.1;
78678;PMS5003;67994;59.334;13.528;2023-09-12T02:02:00;25.1;24.1;
78678;PMS5003;67994;59.334;13.528;2023-09-12T02:03:01;25.1;24.1;
78678;PMS5003;67994;59.334;13.528;2023-09-12T02:04:00;31.4;26.9;
78678;PMS5003;67994;59.334;13.528;2023-09-12T02:05:03;31.4;26.9;
78678;PMS5003;67994;59.334;13.528;2023-09-12T02:06:00;31.4;26.9;
78678;PMS5003;67994;59.334;13.528;2023-09-12T02:07:00;31.4;26.9;
78678;PMS5003;67994;59.334;13.528;2023-09-12T02:08:00;31.4;26.9;
78678;PMS5003;67994;59.334;13.528;2023-09-12T02:09:00;26.0;22.0;
78678;PMS5003;67994;59.334;13.528;2023-09-12T02:10:00;26.0;22.0;
78678;PMS5003;67994;59.334;13.528;2023-09-12T02:11:00;26.0;22.0;
78678;PMS5003;67994;59.334;13.528;2023-09-12T02:12:00;26.0;22.0;
78678;PMS5003;67994;59.334;13.528;2023-09-12T02:13:00;26.0;22.0;
78678;PMS5003;67994;59.334;13.528;2023-09-12T02:14:00;24.1;23.2;
78678;PMS5003;67994;59.334;13.528;2023-09-12T02:15:00;24.1;23.2;
78678;PMS5003;67994;59.334;13.528;2023-09-12T02:16:00;24.1;23.2;
78678;PMS5003;67994;59.334;13.528;2023-09-12T02:17:00;24.1;23.2;
78678;PMS5003;67994;59.334;13.528;2023-09-12T02:18:00;24.1;23.2;
78678;PMS5003;67994;59.334;13.528;2023-09-12T02:19:00;21.8;21.0;
78678;PMS5003;67994;59.334;13.528;2023-09-12T02:20:00;21.8;21.0;
78678;PMS5003;67994;59.334;13.528;2023-09-12T02:21:00;21.8;21.0;
78678;PMS5003;67994;59.334;13.528;2023-09-12T02:22:00;21.8;21.0;
78678;PMS5003;67994;59.334;13.528;2023-09-12T02:23:00;21.8;21.0;
78678;PMS5003;67994;59.334;13.528;2023-09-12T02:24:00;29.5;28.6;
78678;PMS5003;67994;59.334;13.528;2023-09-12T02:25:00;29.5;28.6;
78678;PMS5003;67994;59.334;13.528;2023-09-12T02:26:00;29.5;28.6;
78678;PMS5003;67994;59.334;13.528;2023-09-12T02:27:00;29.5;28.6;
78678;PMS5003;67994;59.334;13.528;2023-09-12T02:28:00;29.5;28.6;
78678;PMS5003;67994;59.334;13.528;2023-09-12T02:29:00;24.9;22.9;
78678;PMS5003;67994;59.334;13.528;2023-09-12T02:30:00;24.9;22.9;
78678;PMS5003;67994;59.334;13.528;2023-09-12T02:31:00;24.9;22.9;
78678;PMS5003;67994;59.334;13.528;2023-09-12T02:32:00;24.9;22.9;
78678;PMS5003;67994;59.334;13.528;2023-09-12T02:33:00;24.9;22.9;
78678;PMS5003;67994;59.334;13.528;2023-09-12T02:34:00;19.0;17.9;
78678;PMS5003;67994;59.334;13.528;2023-09-12T02:35:00;19.0;17.9;
78678;PMS5003;67994;59.334;13.528;2023-09-12T02:36:00;19.0;17.9;
78678;PMS5003;67994;59.334;13.528;2023-09-12T02:37:00;19.0;17.9;
78678;PMS5003;67994;59.334;13.528;2023-09-12T02:38:00;19.0;17.9;
78678;PMS5003;67994;59.334;13.528;2023-09-12T02:39:00;26.3;24.6;
78678;PMS5003;67994;59.334;13.528;2023-09-12T02:40:00;26.3;24.6;
78678;PMS5003;67994;59.334;13.528;2023-09-12T02:41:00;26.3;24.6;
78678;PMS5003;67994;59.334;13.528;2023-09-12T02:42:00;26.3;24.6;
78678;PMS5003;67994;59.334;13.528;2023-09-12T02:43:00;26.3;24.6;
78678;PMS5003;67994;59.334;13.528;2023-09-12T02:44:00;25.7;24.1;
78678;PMS5003;67994;59.334;13.528;2023-09-12T02:45:00;25.7;24.1;
78678;PMS5003;67994;59.334;13.528;2023-09-12T02:46:00;25.7;24.1;
78678;PMS5003;67994;59.334;13.528;2023-09-12T02:47:00;25.7;24.1;
78678;PMS5003;67994;59.334;13.528;2023-09-12T02:48:00;25.7;24.1;
78678;PMS5003;67994;59.334;13.528;2023-09-12T02:49:00;21.5;20.0;
78678;PMS5003;67994;59.334;13.528;2023-09-12T02:50:00;21.5;20.0;
78678;PMS5003;67994;59.334;13.528;2023-09-12T02:51:00;21.5;20.0;
78678;PMS5003;67994;59.334;13.528;2023-09-12T02:52:00;21.5;20.0;
78678;PMS5003;67994;59.334;13.528;2023-09-12T02:53:00;21.5;20.0;
78678;PMS5003;67994;59.334;13.528;2023-09-12T02:54:00;24.9;22.9;
78678;PMS5003;67994;59.334;13.528;2023-09-12T02:55:00;24.9;22.9;
78678;PMS5003;67994;59.334;13.528;2023-09-12T02:56:00;24.9;22.9;
78678;PMS5003;67994;59.334;13.528;2023-09-12T02:57:00;24.9;22.9;
78678;PMS5003;67994;59.334;13.528;2023-09-12T02:58:00;24.9;22.9;
78678;PMS5003;67994;59.334;13.528;2023-09-12T02:59:00;22.3;19.8;
78678;PMS5003;67994;59.334;13.528;2023-09-12T03:00:00;22.3;19.8;
78678;PMS5003;67994;59.334;13.528;2023-09-12T03:01:01;22.3;19.8;
78678;PMS5003;67994;59.334;13.528;2023-09-12T03:02:00;22.3;19.8;
78678;PMS5003;67994;59.334;13.528;2023-09-12T03:03:00;22.3;19.8;
78678;PMS5003;67994;59.334;13.528;2023-09-12T03:04:00;23.0;23.0;
78678;PMS5003;67994;59.334;13.528;2023-09-12T03:05:00;23.0;23.0;
78678;PMS5003;67994;59.334;13.528;2023-09-12T03:06:01;23.0;23.0;
78678;PMS5003;67994;59.334;13.528;2023-09-12T03:07:00;23.0;23.0;
78678;PMS5003;67994;59.334;13.528;2023-09-12T03:08:00;23.0;23.0;
78678;PMS5003;67994;59.334;13.528;2023-09-12T03:09:00;26.0;24.3;
78678;PMS5003;67994;59.334;13.528;2023-09-12T03:10:00;26.0;24.3;
78678;PMS5003;67994;59.334;13.528;2023-09-12T03:11:00;26.0;24.3;
78678;PMS5003;67994;59.334;13.528;2023-09-12T03:12:00;26.0;24.3;
78678;PMS5003;67994;59.334;13.528;2023-09-12T03:13:00;26.0;24.3;
78678;PMS5003;67994;59.334;13.528;2023-09-12T03:14:00;22.3;21.5;
78678;PMS5003;67994;59.334;13.528;2023-09-12T03:15:00;22.3;21.5;
78678;PMS5003;67994;59.334;13.528;2023-09-12T03:16:00;22.3;21.5;
78678;PMS5003;67994;59.334;13.528;2023-09-12T03:17:00;22.3;21.5;
78678;PMS5003;67994;59.334;13.528;2023-09-12T03:18:00;22.3;21.5;
78678;PMS5003;67994;59.334;13.528;2023-09-12T03:19:00;24.5;21.9;
78678;PMS5003;67994;59.334;13.528;2023-09-12T03:20:00;24.5;21.9;
78678;PMS5003;67994;59.334;13.528;2023-09-12T03:21:00;24.5;21.9;
78678;PMS5003;67994;59.334;13.528;2023-09-12T03:22:00;24.5;21.9;
78678;PMS5003;67994;59.334;13.528;2023-09-12T03:23:00;24.5;21.9;
78678;PMS5003;67994;59.334;13.528;2023-09-12T03:24:00;24.7;20.4;
78678;PMS5003;67994;59.334;13.528;2023-09-12T03:25:01;24.7;20.4;
78678;PMS5003;67994;59.334;13.528;2023-09-12T03:26:01;24.7;20.4;
78678;PMS5003;67994;59.334;13.528;2023-09-12T03:27:00;24.7;20.4;
78678;PMS5003;67994;59.334;13.528;2023-09-12T03:28:00;24.7;20.4;
78678;PMS5003;67994;59.334;13.528;2023-09-12T03:29:00;24.9;23.6;
78678;PMS5003;67994;59.334;13.528;2023-09-12T03:30:00;24.9;23.6;
78678;PMS5003;67994;59.334;13.528;2023-09-12T03:31:03;24.9;23.6;
78678;PMS5003;67994;59.334;13.528;2023-09-12T03:32:00;24.9;23.6;
78678;PMS5003;67994;59.334;13.528;2023-09-12T03:33:00;24.9;23.6;
78678;PMS5003;67994;59.334;13.528;2023-09-12T03:34:00;26.0;23.4;
78678;PMS5003;67994;59.334;13.528;2023-09-12T03:35:00;26.0;23.4;
78678;PMS5003;67994;59.334;13.528;2023-09-12T03:36:00;26.0;23.4;
78678;PMS5003;67994;59.334;13.528;2023-09-12T03:37:00;26.0;23.4;
78678;PMS5003;67994;59.334;13.528;2023-09-12T03:38:00;26.0;23.4;
78678;PMS5003;67994;59.334;13.528;2023-09-12T03:39:00;27.2;23.8;
78678;PMS5003;67994;59.334;13.528;2023-09-12T03:40:00;27.2;23.8;
78678;PMS5003;67994;59.334;13.528;2023-09-12T03:41:00;27.2;23.8;
78678;PMS5003;67994;59.334;13.528;2023-09-12T03:42:00;27.2;23.8;
78678;PMS5003;67994;59.334;13.528;2023-09-12T03:43:00;27.2;23.8;
78678;PMS5003;67994;59.334;13.528;2023-09-12T03:44:00;28.2;26.4;
78678;PMS5003;67994;59.334;13.528;2023-09-12T03:45:00;28.2;26.4;
78678;PMS5003;67994;59.334;13.528;2023-09-12T03:46:00;28.2;26.4;
78678;PMS5003;67994;59.334;13.528;2023-09-12T03:47:00;28.2;26.4;
78678;PMS5003;67994;59.334;13.528;2023-09-12T03:48:00;28.2;26.4;
78678;PMS5003;67994;59.334;13.528;2023-09-12T03:49:00;33.6;30.4;
78678;PMS5003;67994;59.334;13.528;2023-09-12T03:50:00;33.6;30.4;
78678;PMS5003;67994;59.334;13.528;2023-09-12T03:51:00;33.6;30.4;
78678;PMS5003;67994;59.334;13.528;2023-09-12T03:52:00;33.6;30.4;
78678;PMS5003;67994;59.334;13.528;2023-09-12T03:53:00;33.6;30.4;
78678;PMS5003;67994;59.334;13.528;2023-09-12T03:54:00;34.6;30.9;
78678;PMS5003;67994;59.334;13.528;2023-09-12T03:55:00;34.6;30.9;
78678;PMS5003;67994;59.334;13.528;2023-09-12T03:56:00;34.6;30.9;
78678;PMS5003;67994;59.334;13.528;2023-09-12T03:57:00;34.6;30.9;
78678;PMS5003;67994;59.334;13.528;2023-09-12T03:58:00;34.6;30.9;
78678;PMS5003;67994;59.334;13.528;2023-09-12T03:59:00;29.8;26.3;
78678;PMS5003;67994;59.334;13.528;2023-09-12T04:00:00;29.8;26.3;
78678;PMS5003;67994;59.334;13.528;2023-09-12T04:01:00;29.8;26.3;
78678;PMS5003;67994;59.334;13.528;2023-09-12T04:02:01;29.8;26.3;
78678;PMS5003;67994;59.334;13.528;2023-09-12T04:03:00;29.8;26.3;
78678;PMS5003;67994;59.334;13.528;2023-09-12T04:04:00;33.7;30.0;
78678;PMS5003;67994;59.334;13.528;2023-09-12T04:05:00;33.7;30.0;
78678;PMS5003;67994;59.334;13.528;2023-09-12T04:06:00;33.7;30.0;
78678;PMS5003;67994;59.334;13.528;2023-09-12T04:07:00;33.7;30.0;
78678;PMS5003;67994;59.334;13.528;2023-09-12T04:08:00;33.7;30.0;
78678;PMS5003;67994;59.334;13.528;2023-09-12T04:09:00;36.5;31.2;
78678;PMS5003;67994;59.334;13.528;2023-09-12T04:10:00;36.5;31.2;
78678;PMS5003;67994;59.334;13.528;2023-09-12T04:11:00;36.5;31.2;
78678;PMS5003;67994;59.334;13.528;2023-09-12T04:12:00;36.5;31.2;
78678;PMS5003;67994;59.334;13.528;2023-09-12T04:13:00;36.5;31.2;
78678;PMS5003;67994;59.334;13.528;2023-09-12T04:14:00;38.2;32.8;
78678;PMS5003;67994;59.334;13.528;2023-09-12T04:15:00;38.2;32.8;
78678;PMS5003;67994;59.334;13.528;2023-09-12T04:16:00;38.2;32.8;
78678;PMS5003;67994;59.334;13.528;2023-09-12T04:17:00;38.2;32.8;
78678;PMS5003;67994;59.334;13.528;2023-09-12T04:18:00;38.2;32.8;
78678;PMS5003;67994;59.334;13.528;2023-09-12T04:19:00;45.5;39.2;
78678;PMS5003;67994;59.334;13.528;2023-09-12T04:20:00;45.5;39.2;
78678;PMS5003;67994;59.334;13.528;2023-09-12T04:21:00;45.5;39.2;
78678;PMS5003;67994;59.334;13.528;2023-09-12T04:22:00;45.5;39.2;
78678;PMS5003;67994;59.334;13.528;2023-09-12T04:23:00;45.5;39.2;
78678;PMS5003;67994;59.334;13.528;2023-09-12T04:24:00;40.8;35.3;
78678;PMS5003;67994;59.334;13.528;2023-09-12T04:25:00;40.8;35.3;
78678;PMS5003;67994;59.334;13.528;2023-09-12T04:26:00;40.8;35.3;
78678;PMS5003;67994;59.334;13.528;2023-09-12T04:27:00;40.8;35.3;
78678;PMS5003;67994;59.334;13.528;2023-09-12T04:28:00;40.8;35.3;
78678;PMS5003;67994;59.334;13.528;2023-09-12T04:29:00;42.2;33.3;
78678;PMS5003;67994;59.334;13.528;2023-09-12T04:30:00;42.2;33.3;
78678;PMS5003;67994;59.334;13.528;2023-09-12T04:31:01;42.2;33.3;
78678;PMS5003;67994;59.334;13.528;2023-09-12T04:32:01;42.2;33.3;
78678;PMS5003;67994;59.334;13.528;2023-09-12T04:33:00;42.2;33.3;
78678;PMS5003;67994;59.334;13.528;2023-09-12T04:34:00;43.0;34.6;
78678;PMS5003;67994;59.334;13.528;2023-09-12T04:35:00;43.0;34.6;
78678;PMS5003;67994;59.334;13.528;2023-09-12T04:36:00;43.0;34.6;
78678;PMS5003;67994;59.334;13.528;2023-09-12T04:37:00;43.0;34.6;
78678;PMS5003;67994;59.334;13.528;2023-09-12T04:38:00;43.0;34.6;
78678;PMS5003;67994;59.334;13.528;2023-09-12T04:39:00;50.1;39.5;
78678;PMS5003;67994;59.334;13.528;2023-09-12T04:40:00;50.1;39.5;
78678;PMS5003;67994;59.334;13.528;2023-09-12T04:41:01;50.1;39.5;
78678;PMS5003;67994;59.334;13.528;2023-09-12T04:42:00;50.1;39.5;
78678;PMS5003;67994;59.334;13.528;2023-09-12T04:43:00;50.1;39.5;
78678;PMS5003;67994;59.334;13.528;2023-09-12T04:44:00;49.0;38.9;
78678;PMS5003;67994;59.334;13.528;2023-09-12T04:45:00;49.0;38.9;
78678;PMS5003;67994;59.334;13.528;2023-09-12T04:46:00;49.0;38.9;
78678;PMS5003;67994;59.334;13.528;2023-09-12T04:47:00;49.0;38.9;
78678;PMS5003;67994;59.334;13.528;2023-09-12T04:48:00;49.0;38.9;
78678;PMS5003;67994;59.334;13.528;2023-09-12T04:49:00;44.0;35.4;
78678;PMS5003;67994;59.334;13.528;2023-09-12T04:50:00;44.0;35.4;
78678;PMS5003;67994;59.334;13.528;2023-09-12T04:51:00;44.0;35.4;
78678;PMS5003;67994;59.334;13.528;2023-09-12T04:52:00;44.0;35.4;
78678;PMS5003;67994;59.334;13.528;2023-09-12T04:53:00;44.0;35.4;
78678;PMS5003;67994;59.334;13.528;2023-09-12T04:54:00;47.2;37.9;
78678;PMS5003;67994;59.334;13.528;2023-09-12T04:55:00;47.2;37.9;
78678;PMS5003;67994;59.334;13.528;2023-09-12T04:56:00;47.2;37.9;
78678;PMS5003;67994;59.334;13.528;2023-09-12T04:57:00;47.2;37.9;
78678;PMS5003;67994;59.334;13.528;2023-09-12T04:58:00;47.2;37.9;
78678;PMS5003;67994;59.334;13.528;2023-09-12T04:59:00;44.3;34.8;
78678;PMS5003;67994;59.334;13.528;2023-09-12T05:00:00;44.3;34.8;
78678;PMS5003;67994;59.334;13.528;2023-09-12T05:01:00;44.3;34.8;
78678;PMS5003;67994;59.334;13.528;2023-09-12T05:02:00;44.3;34.8;
78678;PMS5003;67994;59.334;13.528;2023-09-12T05:03:01;44.3;34.8;
78678;PMS5003;67994;59.334;13.528;2023-09-12T05:04:00;50.6;41.6;
78678;PMS5003;67994;59.334;13.528;2023-09-12T05:05:00;50.6;41.6;
78678;PMS5003;67994;59.334;13.528;2023-09-12T05:06:00;50.6;41.6;
78678;PMS5003;67994;59.334;13.528;2023-09-12T05:07:00;50.6;41.6;
78678;PMS5003;67994;59.334;13.528;2023-09-12T05:08:00;50.6;41.6;
78678;PMS5003;67994;59.334;13.528;2023-09-12T05:09:00;47.1;37.5;
78678;PMS5003;67994;59.334;13.528;2023-09-12T05:10:00;47.1;37.5;
78678;PMS5003;67994;59.334;13.528;2023-09-12T05:11:00;47.1;37.5;
78678;PMS5003;67994;59.334;13.528;2023-09-12T05:12:00;47.1;37.5;
78678;PMS5003;67994;59.334;13.528;2023-09-12T05:13:00;47.1;37.5;
78678;PMS5003;67994;59.334;13.528;2023-09-12T05:14:00;42.4;35.2;
78678;PMS5003;67994;59.334;13.528;2023-09-12T05:15:00;42.4;35.2;
78678;PMS5003;67994;59.334;13.528;2023-09-12T05:16:00;42.4;35.2;
78678;PMS5003;67994;59.334;13.528;2023-09-12T05:17:00;42.4;35.2;
78678;PMS5003;67994;59.334;13.528;2023-09-12T05:18:00;42.4;35.2;
78678;PMS5003;67994;59.334;13.528;2023-09-12T05:19:00;38.1;33.1;
78678;PMS5003;67994;59.334;13.528;2023-09-12T05:20:00;38.1;33.1;
78678;PMS5003;67994;59.334;13.528;2023-09-12T05:21:00;38.1;33.1;
78678;PMS5003;67994;59.334;13.528;2023-09-12T05:22:00;38.1;33.1;
78678;PMS5003;67994;59.334;13.528;2023-09-12T05:23:00;38.1;33.1;
78678;PMS5003;67994;59.334;13.528;2023-09-12T05:24:00;50.5;41.8;
78678;PMS5003;67994;59.334;13.528;2023-09-12T05:25:00;50.5;41.8;
78678;PMS5003;67994;59.334;13.528;2023-09-12T05:26:00;50.5;41.8;
78678;PMS5003;67994;59.334;13.528;2023-09-12T05:27:00;50.5;41.8;
78678;PMS5003;67994;59.334;13.528;2023-09-12T05:28:00;50.5;41.8;
78678;PMS5003;67994;59.334;13.528;2023-09-12T05:29:00;51.4;38.9;
78678;PMS5003;67994;59.334;13.528;2023-09-12T05:30:00;51.4;38.9;
78678;PMS5003;67994;59.334;13.528;2023-09-12T05:31:00;51.4;38.9;
78678;PMS5003;67994;59.334;13.528;2023-09-12T05:32:00;51.4;38.9;
78678;PMS5003;67994;59.334;13.528;2023-09-12T05:33:01;51.4;38.9;
78678;PMS5003;67994;59.334;13.528;2023-09-12T05:34:00;46.1;36.7;
78678;PMS5003;67994;59.334;13.528;2023-09-12T05:35:00;46.1;36.7;
78678;PMS5003;67994;59.334;13.528;2023-09-12T05:36:00;46.1;36.7;
78678;PMS5003;67994;59.334;13.528;2023-09-12T05:37:00;46.1;36.7;
78678;PMS5003;67994;59.334;13.528;2023-09-12T05:38:00;46.1;36.7;
78678;PMS5003;67994;59.334;13.528;2023-09-12T05:39:00;47.8;37.3;
78678;PMS5003;67994;59.334;13.528;2023-09-12T05:40:00;47.8;37.3;
78678;PMS5003;67994;59.334;13.528;2023-09-12T05:41:00;47.8;37.3;
78678;PMS5003;67994;59.334;13.528;2023-09-12T05:42:00;47.8;37.3;
78678;PMS5003;67994;59.334;13.528;2023-09-12T05:43:00;47.8;37.3;
78678;PMS5003;67994;59.334;13.528;2023-09-12T05:44:00;42.7;35.3;
78678;PMS5003;67994;59.334;13.528;2023-09-12T05:45:00;42.7;35.3;
78678;PMS5003;67994;59.334;13.528;2023-09-12T05:46:00;42.7;35.3;
78678;PMS5003;67994;59.334;13.528;2023-09-12T05:47:00;42.7;35.3;
78678;PMS5003;67994;59.334;13.528;2023-09-12T05:48:00;42.7;35.3;
78678;PMS5003;67994;59.334;13.528;2023-09-12T05:49:00;48.9;39.8;
78678;PMS5003;67994;59.334;13.528;2023-09-12T05:50:00;48.9;39.8;
78678;PMS5003;67994;59.334;13.528;2023-09-12T05:51:00;48.9;39.8;
78678;PMS5003;67994;59.334;13.528;2023-09-12T05:52:00;48.9;39.8;
78678;PMS5003;67994;59.334;13.528;2023-09-12T05:53:00;48.9;39.8;
78678;PMS5003;67994;59.334;13.528;2023-09-12T05:54:00;43.0;36.1;
78678;PMS5003;67994;59.334;13.528;2023-09-12T05:55:00;43.0;36.1;
78678;PMS5003;67994;59.334;13.528;2023-09-12T05:56:00;43.0;36.1;
78678;PMS5003;67994;59.334;13.528;2023-09-12T05:57:00;43.0;36.1;
78678;PMS5003;67994;59.334;13.528;2023-09-12T05:58:00;43.0;36.1;
78678;PMS5003;67994;59.334;13.528;2023-09-12T05:59:00;43.3;36.1;
78678;PMS5003;67994;59.334;13.528;2023-09-12T06:00:00;43.3;36.1;
78678;PMS5003;67994;59.334;13.528;2023-09-12T06:01:00;43.3;36.1;
78678;PMS5003;67994;59.334;13.528;2023-09-12T06:02:00;43.3;36.1;
78678;PMS5003;67994;59.334;13.528;2023-09-12T06:03:00;43.3;36.1;
78678;PMS5003;67994;59.334;13.528;2023-09-12T06:04:00;46.3;36.3;
78678;PMS5003;67994;59.334;13.528;2023-09-12T06:05:00;46.3;36.3;
78678;PMS5003;67994;59.334;13.528;2023-09-12T06:06:00;46.3;36.3;
78678;PMS5003;67994;59.334;13.528;2023-09-12T06:07:00;46.3;36.3;